Ashby, Massachusetts
Current Conditions -  °F | °C
As of 3:52 PM on Thursday 27 Nov 2014 (Local Time) from KFIT Reporting Station
Overcast Overcast  
Wind Chill: 29°   Ceiling: 2200
Heat Index: 33°   Visibility: 10mi
Dew Point: 25°   Wind: 5mph
Humidity: 72%   Direction: 340°NNW
Pressure: 29.97"   Gusts: NA
Location:  42.68°N, 71.82°W
Report Text: KFIT 272052Z AUTO 34004KT 10SM OVC022 01/M04 A2997 RMK AO2 SLP154 T00061039 53008
Loading
Personal Weather Stations






























Interactive Weather Map New forecast layout! Learn more

10-Day Weather Forecast

Advertisements
Track Severe Weather on mobile